Aviation Digital Data Service (ADDS)

Output produced by METARs form (0454 UTC 16 February 2019)
found at http://www.aviationweather.gov/metar/data/
 
METAR text: RPMD 160400Z 01006KT 320V040 9999 FEW016 BKN090 OVC290 28/23 Q1015 RERA RMK A2997
Conditions at: RPMD (DAVAO/FRANCISCO , PH) observed 0400 UTC 16 February 2019
Temperature: 28.0°C (82°F)
Dewpoint: 23.0°C (73°F) [RH = 74%]
Pressure (altimeter): 29.97 inches Hg (1015.0 mb)
Winds: from the N (10 degrees) at 7 MPH (6 knots; 3.1 m/s)
Visibility: 6 or more miles (10+ km)
Ceiling: 9000 feet AGL
Clouds: few clouds at 1600 feet AGL
broken clouds at 9000 feet AGL
overcast cloud deck at 29000 feet AGL
Weather: no significant weather observed at this time

METAR text: RPMD 160300Z 02010KT 8000 -RA FEW016 OVC080 27/23 Q1015 RMK A2997
Conditions at: RPMD (DAVAO/FRANCISCO , PH) observed 0300 UTC 16 February 2019
Temperature: 27.0°C (81°F)
Dewpoint: 23.0°C (73°F) [RH = 79%]
Pressure (altimeter): 29.97 inches Hg (1015.0 mb)
Winds: from the NNE (20 degrees) at 12 MPH (10 knots; 5.1 m/s)
Visibility: 5 miles ( 8 km)
Ceiling: 8000 feet AGL
Clouds: few clouds at 1600 feet AGL
overcast cloud deck at 8000 feet AGL
Weather: -RA  (light rain)

METAR text: RPMD 160200Z 36008KT 310V030 9999 FEW016 BKN090 OVC290 27/22 Q1016 RMK A3000
Conditions at: RPMD (DAVAO/FRANCISCO , PH) observed 0200 UTC 16 February 2019
Temperature: 27.0°C (81°F)
Dewpoint: 22.0°C (72°F) [RH = 74%]
Pressure (altimeter): 30.00 inches Hg (1016.0 mb)
Winds: from the N (360 degrees) at 9 MPH (8 knots; 4.1 m/s)
Visibility: 6 or more miles (10+ km)
Ceiling: 9000 feet AGL
Clouds: few clouds at 1600 feet AGL
broken clouds at 9000 feet AGL
overcast cloud deck at 29000 feet AGL
Weather: no significant weather observed at this time

METAR text: RPMD 160100Z 36006KT 330V030 9999 FEW016 BKN090 BKN290 27/23 Q1016 RMK A3000
Conditions at: RPMD (DAVAO/FRANCISCO , PH) observed 0100 UTC 16 February 2019
Temperature: 27.0°C (81°F)
Dewpoint: 23.0°C (73°F) [RH = 79%]
Pressure (altimeter): 30.00 inches Hg (1016.0 mb)
Winds: from the N (360 degrees) at 7 MPH (6 knots; 3.1 m/s)
Visibility: 6 or more miles (10+ km)
Ceiling: 9000 feet AGL
Clouds: few clouds at 1600 feet AGL
broken clouds at 9000 feet AGL
broken clouds at 29000 feet AGL
Weather: no significant weather observed at this time

METAR text: RPMD 160000Z 01008KT 9999 FEW016 BKN090 26/22 Q1016 RMK A3000
Conditions at: RPMD (DAVAO/FRANCISCO , PH) observed 0000 UTC 16 February 2019
Temperature: 26.0°C (79°F)
Dewpoint: 22.0°C (72°F) [RH = 79%]
Pressure (altimeter): 30.00 inches Hg (1016.0 mb)
Winds: from the N (10 degrees) at 9 MPH (8 knots; 4.1 m/s)
Visibility: 6 or more miles (10+ km)
Ceiling: 9000 feet AGL
Clouds: few clouds at 1600 feet AGL
broken clouds at 9000 feet AGL
Weather: no significant weather observed at this time

METAR text: RPMD 152300Z 01004KT 9999 SCT016 BKN090 24/22 Q1015 RMK A2997
Conditions at: RPMD (DAVAO/FRANCISCO , PH) observed 2300 UTC 15 February 2019
Temperature: 24.0°C (75°F)
Dewpoint: 22.0°C (72°F) [RH = 89%]
Pressure (altimeter): 29.97 inches Hg (1015.0 mb)
Winds: from the N (10 degrees) at 5 MPH (4 knots; 2.1 m/s)
Visibility: 6 or more miles (10+ km)
Ceiling: 9000 feet AGL
Clouds: scattered clouds at 1600 feet AGL
broken clouds at 9000 feet AGL
Weather: no significant weather observed at this time

METAR text: RPMD 152200Z 02004KT 9999 FEW016 SCT090 23/23 Q1015 RMK A2997
Conditions at: RPMD (DAVAO/FRANCISCO , PH) observed 2200 UTC 15 February 2019
Temperature: 23.0°C (73°F)
Dewpoint: 23.0°C (73°F) [RH = 100%]
Pressure (altimeter): 29.97 inches Hg (1015.0 mb)
Winds: from the NNE (20 degrees) at 5 MPH (4 knots; 2.1 m/s)
Visibility: 6 or more miles (10+ km)
Ceiling: at least 12,000 feet AGL
Clouds: few clouds at 1600 feet AGL
scattered clouds at 9000 feet AGL
Weather: no significant weather observed at this time

METAR text: RPMD 152100Z 02004KT 9999 FEW016 SCT290 23/23 Q1014 RMK A2994
Conditions at: RPMD (DAVAO/FRANCISCO , PH) observed 2100 UTC 15 February 2019
Temperature: 23.0°C (73°F)
Dewpoint: 23.0°C (73°F) [RH = 100%]
Pressure (altimeter): 29.94 inches Hg (1014.0 mb)
Winds: from the NNE (20 degrees) at 5 MPH (4 knots; 2.1 m/s)
Visibility: 6 or more miles (10+ km)
Ceiling: at least 12,000 feet AGL
Clouds: few clouds at 1600 feet AGL
scattered clouds at 29000 feet AGL
Weather: no significant weather observed at this time

METAR text: RPMD 152000Z 01005KT 9999 FEW016 SCT290 23/23 Q1014 RMK A2994
Conditions at: RPMD (DAVAO/FRANCISCO , PH) observed 2000 UTC 15 February 2019
Temperature: 23.0°C (73°F)
Dewpoint: 23.0°C (73°F) [RH = 100%]
Pressure (altimeter): 29.94 inches Hg (1014.0 mb)
Winds: from the N (10 degrees) at 6 MPH (5 knots; 2.6 m/s)
Visibility: 6 or more miles (10+ km)
Ceiling: at least 12,000 feet AGL
Clouds: few clouds at 1600 feet AGL
scattered clouds at 29000 feet AGL
Weather: no significant weather observed at this time

METAR text: RPMD 151900Z 36004KT 9999 FEW016 SCT290 24/21 Q1014 RMK A2994
Conditions at: RPMD (DAVAO/FRANCISCO , PH) observed 1900 UTC 15 February 2019
Temperature: 24.0°C (75°F)
Dewpoint: 21.0°C (70°F) [RH = 83%]
Pressure (altimeter): 29.94 inches Hg (1014.0 mb)
Winds: from the N (360 degrees) at 5 MPH (4 knots; 2.1 m/s)
Visibility: 6 or more miles (10+ km)
Ceiling: at least 12,000 feet AGL
Clouds: few clouds at 1600 feet AGL
scattered clouds at 29000 feet AGL
Weather: no significant weather observed at this time

METAR text: RPMD 151800Z 02003KT 9999 FEW016 BKN090 BKN290 24/21 Q1014 RMK A2994
Conditions at: RPMD (DAVAO/FRANCISCO , PH) observed 1800 UTC 15 February 2019
Temperature: 24.0°C (75°F)
Dewpoint: 21.0°C (70°F) [RH = 83%]
Pressure (altimeter): 29.94 inches Hg (1014.0 mb)
Winds: from the NNE (20 degrees) at 3 MPH (3 knots; 1.5 m/s)
Visibility: 6 or more miles (10+ km)
Ceiling: 9000 feet AGL
Clouds: few clouds at 1600 feet AGL
broken clouds at 9000 feet AGL
broken clouds at 29000 feet AGL
Weather: no significant weather observed at this time

METAR text: RPMD 151700Z 02004KT 9999 FEW016 SCT090 24/21 Q1015 RMK A2997
Conditions at: RPMD (DAVAO/FRANCISCO , PH) observed 1700 UTC 15 February 2019
Temperature: 24.0°C (75°F)
Dewpoint: 21.0°C (70°F) [RH = 83%]
Pressure (altimeter): 29.97 inches Hg (1015.0 mb)
Winds: from the NNE (20 degrees) at 5 MPH (4 knots; 2.1 m/s)
Visibility: 6 or more miles (10+ km)
Ceiling: at least 12,000 feet AGL
Clouds: few clouds at 1600 feet AGL
scattered clouds at 9000 feet AGL
Weather: no significant weather observed at this time

METAR text: RPMD 151600Z 02003KT 9999 FEW016 SCT290 24/20 Q1016 RMK A3000
Conditions at: RPMD (DAVAO/FRANCISCO , PH) observed 1600 UTC 15 February 2019
Temperature: 24.0°C (75°F)
Dewpoint: 20.0°C (68°F) [RH = 78%]
Pressure (altimeter): 30.00 inches Hg (1016.0 mb)
Winds: from the NNE (20 degrees) at 3 MPH (3 knots; 1.5 m/s)
Visibility: 6 or more miles (10+ km)
Ceiling: at least 12,000 feet AGL
Clouds: few clouds at 1600 feet AGL
scattered clouds at 29000 feet AGL
Weather: no significant weather observed at this time

METAR text: RPMD 151500Z 02003KT 9999 FEW016 BKN090 25/20 Q1016 RMK A3000
Conditions at: RPMD (DAVAO/FRANCISCO , PH) observed 1500 UTC 15 February 2019
Temperature: 25.0°C (77°F)
Dewpoint: 20.0°C (68°F) [RH = 74%]
Pressure (altimeter): 30.00 inches Hg (1016.0 mb)
Winds: from the NNE (20 degrees) at 3 MPH (3 knots; 1.5 m/s)
Visibility: 6 or more miles (10+ km)
Ceiling: 9000 feet AGL
Clouds: few clouds at 1600 feet AGL
broken clouds at 9000 feet AGL
Weather: no significant weather observed at this time

METAR text: RPMD 151400Z VRB02KT 9999 FEW016 24/19 Q1016 RMK A3000
Conditions at: RPMD (DAVAO/FRANCISCO , PH) observed 1400 UTC 15 February 2019
Temperature: 24.0°C (75°F)
Dewpoint: 19.0°C (66°F) [RH = 74%]
Pressure (altimeter): 30.00 inches Hg (1016.0 mb)
Winds: variable direction winds at 2 MPH (2 knots; 1.0 m/s)
Visibility: 6 or more miles (10+ km)
Ceiling: at least 12,000 feet AGL
Clouds: few clouds at 1600 feet AGL
Weather: no significant weather observed at this time

METAR text: RPMD 151300Z 32003KT 290V350 9999 FEW016 24/20 Q1016 RMK A3000
Conditions at: RPMD (DAVAO/FRANCISCO , PH) observed 1300 UTC 15 February 2019
Temperature: 24.0°C (75°F)
Dewpoint: 20.0°C (68°F) [RH = 78%]
Pressure (altimeter): 30.00 inches Hg (1016.0 mb)
Winds: from the NW (320 degrees) at 3 MPH (3 knots; 1.5 m/s)
Visibility: 6 or more miles (10+ km)
Ceiling: at least 12,000 feet AGL
Clouds: few clouds at 1600 feet AGL
Weather: no significant weather observed at this time

METAR text: RPMD 151200Z 27003KT 9999 FEW016 26/20 Q1015 RMK A2997
Conditions at: RPMD (DAVAO/FRANCISCO , PH) observed 1200 UTC 15 February 2019
Temperature: 26.0°C (79°F)
Dewpoint: 20.0°C (68°F) [RH = 70%]
Pressure (altimeter): 29.97 inches Hg (1015.0 mb)
Winds: from the W (270 degrees) at 3 MPH (3 knots; 1.5 m/s)
Visibility: 6 or more miles (10+ km)
Ceiling: at least 12,000 feet AGL
Clouds: few clouds at 1600 feet AGL
Weather: no significant weather observed at this time

METAR text: RPMD 151100Z 24004KT 9999 FEW016 SCT290 26/21 Q1015 RMK A2997
Conditions at: RPMD (DAVAO/FRANCISCO , PH) observed 1100 UTC 15 February 2019
Temperature: 26.0°C (79°F)
Dewpoint: 21.0°C (70°F) [RH = 74%]
Pressure (altimeter): 29.97 inches Hg (1015.0 mb)
Winds: from the WSW (240 degrees) at 5 MPH (4 knots; 2.1 m/s)
Visibility: 6 or more miles (10+ km)
Ceiling: at least 12,000 feet AGL
Clouds: few clouds at 1600 feet AGL
scattered clouds at 29000 feet AGL
Weather: no significant weather observed at this time

METAR text: RPMD 151000Z 20005KT 170V230 9999 FEW016 BKN290 27/20 Q1014 RMK A2994
Conditions at: RPMD (DAVAO/FRANCISCO , PH) observed 1000 UTC 15 February 2019
Temperature: 27.0°C (81°F)
Dewpoint: 20.0°C (68°F) [RH = 66%]
Pressure (altimeter): 29.94 inches Hg (1014.0 mb)
Winds: from the SSW (200 degrees) at 6 MPH (5 knots; 2.6 m/s)
Visibility: 6 or more miles (10+ km)
Ceiling: 29000 feet AGL
Clouds: few clouds at 1600 feet AGL
broken clouds at 29000 feet AGL
Weather: no significant weather observed at this time

METAR text: RPMD 150900Z 17007KT 9999 FEW016 30/19 Q1013 RMK A2991
Conditions at: RPMD (DAVAO/FRANCISCO , PH) observed 0900 UTC 15 February 2019
Temperature: 30.0°C (86°F)
Dewpoint: 19.0°C (66°F) [RH = 52%]
Pressure (altimeter): 29.91 inches Hg (1013.0 mb)
Winds: from the S (170 degrees) at 8 MPH (7 knots; 3.6 m/s)
Visibility: 6 or more miles (10+ km)
Ceiling: at least 12,000 feet AGL
Clouds: few clouds at 1600 feet AGL
Weather: no significant weather observed at this time

METAR text: RPMD 150800Z 16009KT 9999 FEW016 30/19 Q1012 RMK A2988
Conditions at: RPMD (DAVAO/FRANCISCO , PH) observed 0800 UTC 15 February 2019
Temperature: 30.0°C (86°F)
Dewpoint: 19.0°C (66°F) [RH = 52%]
Pressure (altimeter): 29.88 inches Hg (1012.0 mb)
Winds: from the SSE (160 degrees) at 10 MPH (9 knots; 4.6 m/s)
Visibility: 6 or more miles (10+ km)
Ceiling: at least 12,000 feet AGL
Clouds: few clouds at 1600 feet AGL
Weather: no significant weather observed at this time

METAR text: RPMD 150700Z VRB04KT 9999 SCT016 32/17 Q1012 RMK A2988
Conditions at: RPMD (DAVAO/FRANCISCO , PH) observed 0700 UTC 15 February 2019
Temperature: 32.0°C (90°F)
Dewpoint: 17.0°C (63°F) [RH = 41%]
Pressure (altimeter): 29.88 inches Hg (1012.0 mb)
Winds: variable direction winds at 5 MPH (4 knots; 2.1 m/s)
Visibility: 6 or more miles (10+ km)
Ceiling: at least 12,000 feet AGL
Clouds: scattered clouds at 1600 feet AGL
Weather: no significant weather observed at this time

METAR text: RPMD 150600Z 06008KT 020V090 9999 FEW016 31/19 Q1012 RMK A2988
Conditions at: RPMD (DAVAO/FRANCISCO , PH) observed 0600 UTC 15 February 2019
Temperature: 31.0°C (88°F)
Dewpoint: 19.0°C (66°F) [RH = 49%]
Pressure (altimeter): 29.88 inches Hg (1012.0 mb)
Winds: from the ENE (60 degrees) at 9 MPH (8 knots; 4.1 m/s)
Visibility: 6 or more miles (10+ km)
Ceiling: at least 12,000 feet AGL
Clouds: few clouds at 1600 feet AGL
Weather: no significant weather observed at this time

METAR text: RPMD 150500Z 03006G19KT 9999 FEW016 31/20 Q1013 RMK A2991
Conditions at: RPMD (DAVAO/FRANCISCO , PH) observed 0500 UTC 15 February 2019
Temperature: 31.0°C (88°F)
Dewpoint: 20.0°C (68°F) [RH = 52%]
Pressure (altimeter): 29.91 inches Hg (1013.0 mb)
Winds: from the NNE (30 degrees) at 7 MPH (6 knots; 3.1 m/s)
gusting to 22 MPH (19 knots; 9.8 m/s)
Visibility: 6 or more miles (10+ km)
Ceiling: at least 12,000 feet AGL
Clouds: few clouds at 1600 feet AGL
Weather: no significant weather observed at this time

METAR text: RPMD 150400Z 04006KT 330V100 9999 FEW016 31/20 Q1014 RMK A2994
Conditions at: RPMD (DAVAO/FRANCISCO , PH) observed 0400 UTC 15 February 2019
Temperature: 31.0°C (88°F)
Dewpoint: 20.0°C (68°F) [RH = 52%]
Pressure (altimeter): 29.94 inches Hg (1014.0 mb)
Winds: from the NE (40 degrees) at 7 MPH (6 knots; 3.1 m/s)
Visibility: 6 or more miles (10+ km)
Ceiling: at least 12,000 feet AGL
Clouds: few clouds at 1600 feet AGL
Weather: no significant weather observed at this time

METAR text: RPMD 150300Z 01006KT 340V070 9999 FEW016 29/21 Q1016 RMK A3000
Conditions at: RPMD (DAVAO/FRANCISCO , PH) observed 0300 UTC 15 February 2019
Temperature: 29.0°C (84°F)
Dewpoint: 21.0°C (70°F) [RH = 62%]
Pressure (altimeter): 30.00 inches Hg (1016.0 mb)
Winds: from the N (10 degrees) at 7 MPH (6 knots; 3.1 m/s)
Visibility: 6 or more miles (10+ km)
Ceiling: at least 12,000 feet AGL
Clouds: few clouds at 1600 feet AGL
Weather: no significant weather observed at this time

METAR text: RPMD 150200Z 04007KT 260V070 9999 FEW016 28/21 Q1016 RMK A3000
Conditions at: RPMD (DAVAO/FRANCISCO , PH) observed 0200 UTC 15 February 2019
Temperature: 28.0°C (82°F)
Dewpoint: 21.0°C (70°F) [RH = 66%]
Pressure (altimeter): 30.00 inches Hg (1016.0 mb)
Winds: from the NE (40 degrees) at 8 MPH (7 knots; 3.6 m/s)
Visibility: 6 or more miles (10+ km)
Ceiling: at least 12,000 feet AGL
Clouds: few clouds at 1600 feet AGL
Weather: no significant weather observed at this time

METAR text: RPMD 150100Z 03006KT 340V080 9999 FEW016 27/21 Q1017 RMK A3003
Conditions at: RPMD (DAVAO/FRANCISCO , PH) observed 0100 UTC 15 February 2019
Temperature: 27.0°C (81°F)
Dewpoint: 21.0°C (70°F) [RH = 70%]
Pressure (altimeter): 30.03 inches Hg (1017.0 mb)
Winds: from the NNE (30 degrees) at 7 MPH (6 knots; 3.1 m/s)
Visibility: 6 or more miles (10+ km)
Ceiling: at least 12,000 feet AGL
Clouds: few clouds at 1600 feet AGL
Weather: no significant weather observed at this time

METAR text: RPMD 150000Z 02006KT 9999 FEW016 25/22 Q1017 RMK A3003
Conditions at: RPMD (DAVAO/FRANCISCO , PH) observed 0000 UTC 15 February 2019
Temperature: 25.0°C (77°F)
Dewpoint: 22.0°C (72°F) [RH = 83%]
Pressure (altimeter): 30.03 inches Hg (1017.0 mb)
Winds: from the NNE (20 degrees) at 7 MPH (6 knots; 3.1 m/s)
Visibility: 6 or more miles (10+ km)
Ceiling: at least 12,000 feet AGL
Clouds: few clouds at 1600 feet AGL
Weather: no significant weather observed at this time

METAR text: RPMD 142300Z 01004KT 34OV060 9999 FEW016 23/22 Q1016 RMK A3000
Conditions at: RPMD (DAVAO/FRANCISCO , PH) observed 2300 UTC 14 February 2019
Temperature: 23.0°C (73°F)
Dewpoint: 22.0°C (72°F) [RH = 94%]
Pressure (altimeter): 30.00 inches Hg (1016.0 mb)
Winds: from the N (10 degrees) at 5 MPH (4 knots; 2.1 m/s)
Visibility: 6 or more miles (10+ km)
Ceiling: at least 12,000 feet AGL
Clouds: few clouds at 1600 feet AGL
Weather: no significant weather observed at this time

METAR text: RPMD 142200Z 01003KT 9999 FEW016 BKN290 22/22 Q1015 RMK A2997
Conditions at: RPMD (DAVAO/FRANCISCO , PH) observed 2200 UTC 14 February 2019
Temperature: 22.0°C (72°F)
Dewpoint: 22.0°C (72°F) [RH = 100%]
Pressure (altimeter): 29.97 inches Hg (1015.0 mb)
Winds: from the N (10 degrees) at 3 MPH (3 knots; 1.5 m/s)
Visibility: 6 or more miles (10+ km)
Ceiling: 29000 feet AGL
Clouds: few clouds at 1600 feet AGL
broken clouds at 29000 feet AGL
Weather: no significant weather observed at this time

METAR text: RPMD 142100Z 03004KT 9999 FEW016 SCT290 22/21 Q1014 RMK A2994
Conditions at: RPMD (DAVAO/FRANCISCO , PH) observed 2100 UTC 14 February 2019
Temperature: 22.0°C (72°F)
Dewpoint: 21.0°C (70°F) [RH = 94%]
Pressure (altimeter): 29.94 inches Hg (1014.0 mb)
Winds: from the NNE (30 degrees) at 5 MPH (4 knots; 2.1 m/s)
Visibility: 6 or more miles (10+ km)
Ceiling: at least 12,000 feet AGL
Clouds: few clouds at 1600 feet AGL
scattered clouds at 29000 feet AGL
Weather: no significant weather observed at this time

METAR text: RPMD 142000Z 02003KT 9999 FEW016 SCT290 22/20 Q1014 RMK A2994
Conditions at: RPMD (DAVAO/FRANCISCO , PH) observed 2000 UTC 14 February 2019
Temperature: 22.0°C (72°F)
Dewpoint: 20.0°C (68°F) [RH = 88%]
Pressure (altimeter): 29.94 inches Hg (1014.0 mb)
Winds: from the NNE (20 degrees) at 3 MPH (3 knots; 1.5 m/s)
Visibility: 6 or more miles (10+ km)
Ceiling: at least 12,000 feet AGL
Clouds: few clouds at 1600 feet AGL
scattered clouds at 29000 feet AGL
Weather: no significant weather observed at this time

METAR text: RPMD 141900Z 36004KT 9999 FEW016 SCT290 22/20 Q1014 RMK A2994
Conditions at: RPMD (DAVAO/FRANCISCO , PH) observed 1900 UTC 14 February 2019
Temperature: 22.0°C (72°F)
Dewpoint: 20.0°C (68°F) [RH = 88%]
Pressure (altimeter): 29.94 inches Hg (1014.0 mb)
Winds: from the N (360 degrees) at 5 MPH (4 knots; 2.1 m/s)
Visibility: 6 or more miles (10+ km)
Ceiling: at least 12,000 feet AGL
Clouds: few clouds at 1600 feet AGL
scattered clouds at 29000 feet AGL
Weather: no significant weather observed at this time

METAR text: RPMD 141800Z 03005KT 9999 FEW016 SCT290 23/20 Q1014 RMK A2994
Conditions at: RPMD (DAVAO/FRANCISCO , PH) observed 1800 UTC 14 February 2019
Temperature: 23.0°C (73°F)
Dewpoint: 20.0°C (68°F) [RH = 83%]
Pressure (altimeter): 29.94 inches Hg (1014.0 mb)
Winds: from the NNE (30 degrees) at 6 MPH (5 knots; 2.6 m/s)
Visibility: 6 or more miles (10+ km)
Ceiling: at least 12,000 feet AGL
Clouds: few clouds at 1600 feet AGL
scattered clouds at 29000 feet AGL
Weather: no significant weather observed at this time

METAR text: RPMD 141700Z 01003KT 9999 FEW016 23/20 Q1015 RMK A2997
Conditions at: RPMD (DAVAO/FRANCISCO , PH) observed 1700 UTC 14 February 2019
Temperature: 23.0°C (73°F)
Dewpoint: 20.0°C (68°F) [RH = 83%]
Pressure (altimeter): 29.97 inches Hg (1015.0 mb)
Winds: from the N (10 degrees) at 3 MPH (3 knots; 1.5 m/s)
Visibility: 6 or more miles (10+ km)
Ceiling: at least 12,000 feet AGL
Clouds: few clouds at 1600 feet AGL
Weather: no significant weather observed at this time

Forecast for: RPMD (DAVAO/FRANCISCO , PH)
Text: TAF RPMD 152300Z 1600/1624 02006KT 9999 FEW016 SCT090
Forecast period: 0000 UTC 16 February 2019 to 0000 UTC 17 February 2019
Forecast type: FROM: standard forecast or significant change
Winds: from the NNE (20 degrees) at 7 MPH (6 knots; 3.1 m/s)
Visibility: 6 or more miles 10+ km)
Ceiling: at least 12,000 feet AGL
Clouds: few clouds at 1600 feet AGL
scattered clouds at 9000 feet AGL
Weather: no significant weather forecast for this period
Text: TEMPO 1600/1606 35010KT FEW016 BKN090
Forecast period: 0000 to 0600 UTC 16 February 2019
Forecast type: TEMPORARY: The following changes expected for less than half the time period
Winds: from the N (350 degrees) at 12 MPH (10 knots; 5.1 m/s)
Visibility: missing
Ceiling: 9000 feet AGL
Clouds: few clouds at 1600 feet AGL
broken clouds at 9000 feet AGL
Weather: no significant weather forecast for this period
Text: TEMPO 1606/1612 17012KT 9000 -SHRA FEW016 BKN090 BKN290
Forecast period: 0600 to 1200 UTC 16 February 2019
Forecast type: TEMPORARY: The following changes expected for less than half the time period
Winds: from the S (170 degrees) at 14 MPH (12 knots; 6.2 m/s)
Visibility: 6 miles (9 km)
Ceiling: 9000 feet AGL
Clouds: few clouds at 1600 feet AGL
broken clouds at 9000 feet AGL
broken clouds at 29000 feet AGL
Weather: -SHRA  (light rain showers)